Time,TemperatureF,DewpointF,PressureIn,WindDirection,WindDirectionDegrees,WindSpeedMPH,WindSpeedGustMPH,Humidity,HourlyPrecipIn,Conditions,Clouds,dailyrainin,SolarRadiationWatts/m^2,SoftwareType,DateUTC
2017-05-27 00:01:00,58.8,55.9,29.87,NW,305,0.0,0.0,90,0.00,,,0.00,0.0,meteobridge,2017-05-27 04:01:00,
2017-05-27 00:06:00,59.0,56.3,29.86,NW,305,0.0,0.0,91,0.00,,,0.00,0.0,meteobridge,2017-05-27 04:06:00,
2017-05-27 00:09:00,58.8,55.9,29.86,NW,305,0.0,0.0,90,0.00,,,0.00,0.0,meteobridge,2017-05-27 04:09:00,
2017-05-27 00:14:00,58.8,55.9,29.86,NW,305,0.0,0.0,90,0.00,,,0.00,0.0,meteobridge,2017-05-27 04:14:00,
2017-05-27 00:19:00,58.6,55.8,29.86,NW,305,0.0,0.0,90,0.00,,,0.00,0.0,meteobridge,2017-05-27 04:19:00,
2017-05-27 00:24:00,58.5,55.6,29.86,NW,305,0.0,0.0,90,0.00,,,0.00,0.0,meteobridge,2017-05-27 04:24:00,
2017-05-27 00:30:00,58.5,55.8,29.87,NW,305,0.0,0.0,91,0.00,,,0.00,0.0,meteobridge,2017-05-27 04:30:00,
2017-05-27 00:35:00,58.5,55.8,29.87,NW,305,0.0,0.0,91,0.00,,,0.00,0.0,meteobridge,2017-05-27 04:35:00,
2017-05-27 00:40:00,58.5,55.8,29.87,NW,305,0.0,0.0,91,0.00,,,0.00,0.0,meteobridge,2017-05-27 04:40:00,
2017-05-27 00:45:00,58.5,55.8,29.87,NW,305,0.0,0.0,91,0.00,,,0.00,0.0,meteobridge,2017-05-27 04:45:00,
2017-05-27 00:50:00,58.5,56.1,29.87,NW,305,0.0,0.0,92,0.00,,,0.00,0.0,meteobridge,2017-05-27 04:50:00,
2017-05-27 00:55:00,58.5,56.1,29.87,NW,305,0.0,0.0,92,0.00,,,0.00,0.0,meteobridge,2017-05-27 04:55:00,
2017-05-27 01:00:00,58.3,55.9,29.87,NW,305,0.0,0.0,92,0.00,,,0.00,0.0,meteobridge,2017-05-27 05:00:00,
2017-05-27 01:05:00,58.3,55.9,29.87,NW,305,0.0,0.0,92,0.00,,,0.00,0.0,meteobridge,2017-05-27 05:05:00,
2017-05-27 01:10:00,58.3,55.9,29.87,NW,305,0.0,0.0,92,0.00,,,0.00,0.0,meteobridge,2017-05-27 05:10:00,
2017-05-27 01:15:00,58.3,55.9,29.87,NW,305,0.0,0.0,92,0.00,,,0.00,0.0,meteobridge,2017-05-27 05:15:00,
2017-05-27 01:20:00,58.3,55.9,29.87,NW,305,0.0,1.0,92,0.00,,,0.00,0.0,meteobridge,2017-05-27 05:20:00,
2017-05-27 01:26:00,58.3,55.9,29.87,NW,305,0.0,0.0,92,0.00,,,0.00,0.0,meteobridge,2017-05-27 05:26:00,
2017-05-27 01:31:00,58.3,55.9,29.87,NW,305,0.0,0.0,92,0.00,,,0.00,0.0,meteobridge,2017-05-27 05:31:00,
2017-05-27 01:36:00,58.5,56.1,29.87,NW,305,0.0,1.0,92,0.00,,,0.00,0.0,meteobridge,2017-05-27 05:36:00,
2017-05-27 01:41:00,58.5,55.8,29.86,NW,305,0.0,2.0,91,0.00,,,0.00,0.0,meteobridge,2017-05-27 05:41:00,
2017-05-27 01:46:00,58.6,55.9,29.86,NW,305,0.0,0.0,91,0.00,,,0.00,0.0,meteobridge,2017-05-27 05:46:00,
2017-05-27 01:51:00,58.6,55.9,29.86,NW,305,0.0,0.0,91,0.00,,,0.00,0.0,meteobridge,2017-05-27 05:51:00,
2017-05-27 01:56:00,58.6,55.8,29.86,NW,305,0.0,0.0,90,0.00,,,0.00,0.0,meteobridge,2017-05-27 05:56:00,
2017-05-27 02:01:00,58.8,55.9,29.86,NW,305,0.0,0.0,90,0.00,,,0.00,0.0,meteobridge,2017-05-27 06:01:00,
2017-05-27 02:06:00,58.8,55.9,29.86,NW,305,0.0,0.0,90,0.00,,,0.00,0.0,meteobridge,2017-05-27 06:06:00,
2017-05-27 02:11:00,58.8,55.9,29.86,NW,305,0.0,0.0,90,0.00,,,0.00,0.0,meteobridge,2017-05-27 06:11:00,
2017-05-27 02:16:00,58.8,55.9,29.86,NW,305,0.0,0.0,90,0.00,,,0.00,0.0,meteobridge,2017-05-27 06:16:00,
2017-05-27 02:21:00,58.8,55.9,29.86,NW,305,0.0,0.0,90,0.00,,,0.00,0.0,meteobridge,2017-05-27 06:21:00,
2017-05-27 02:26:00,58.8,55.9,29.86,NW,305,0.0,0.0,90,0.00,,,0.00,0.0,meteobridge,2017-05-27 06:26:00,
2017-05-27 02:31:00,58.6,55.9,29.85,NW,305,0.9,2.0,91,0.00,,,0.00,0.0,meteobridge,2017-05-27 06:31:00,
2017-05-27 02:36:00,58.6,55.9,29.85,NW,305,0.0,2.0,91,0.00,,,0.00,0.0,meteobridge,2017-05-27 06:36:00,
2017-05-27 02:41:00,58.5,55.8,29.85,NW,305,0.0,1.0,91,0.00,,,0.00,0.0,meteobridge,2017-05-27 06:41:00,
2017-05-27 02:46:00,58.5,55.8,29.85,NW,305,0.0,2.0,91,0.00,,,0.00,0.0,meteobridge,2017-05-27 06:46:00,
2017-05-27 02:51:00,58.5,55.8,29.85,NW,305,0.0,1.0,91,0.00,,,0.00,0.0,meteobridge,2017-05-27 06:51:00,
2017-05-27 02:56:00,58.3,55.6,29.85,NW,305,0.0,0.0,91,0.00,,,0.00,0.0,meteobridge,2017-05-27 06:56:00,
2017-05-27 03:01:00,58.3,55.6,29.85,NW,305,0.0,0.0,91,0.00,,,0.00,0.0,meteobridge,2017-05-27 07:01:00,
2017-05-27 03:06:00,58.1,55.4,29.85,NW,305,0.0,1.0,91,0.00,,,0.00,0.0,meteobridge,2017-05-27 07:06:00,
2017-05-27 03:11:00,57.9,55.6,29.85,NW,305,0.0,0.0,92,0.00,,,0.00,0.0,meteobridge,2017-05-27 07:11:00,
2017-05-27 03:12:00,57.9,55.6,29.85,NW,305,0.0,0.0,92,0.00,,,0.00,0.0,meteobridge,2017-05-27 07:12:00,
2017-05-27 03:17:00,57.9,55.6,29.85,NW,305,0.0,0.0,92,0.00,,,0.00,0.0,meteobridge,2017-05-27 07:17:00,
2017-05-27 03:22:00,57.7,55.4,29.85,NW,305,0.0,1.0,92,0.00,,,0.00,0.0,meteobridge,2017-05-27 07:22:00,
2017-05-27 03:27:00,57.7,55.4,29.85,NW,305,0.0,0.0,92,0.00,,,0.00,0.0,meteobridge,2017-05-27 07:27:00,
2017-05-27 03:32:00,57.6,55.6,29.85,NW,305,0.0,0.0,93,0.00,,,0.00,0.0,meteobridge,2017-05-27 07:32:00,
2017-05-27 03:37:00,57.6,55.6,29.85,NW,305,0.0,1.0,93,0.00,,,0.00,0.0,meteobridge,2017-05-27 07:37:00,
2017-05-27 03:42:00,57.6,55.6,29.85,NW,305,0.0,1.0,93,0.00,,,0.00,0.0,meteobridge,2017-05-27 07:42:00,
2017-05-27 03:47:00,57.6,55.6,29.85,NW,305,0.0,0.0,93,0.00,,,0.00,0.0,meteobridge,2017-05-27 07:47:00,
2017-05-27 03:52:00,57.6,55.6,29.85,NW,305,0.0,1.0,93,0.00,,,0.00,0.0,meteobridge,2017-05-27 07:52:00,
2017-05-27 03:57:00,57.6,55.6,29.85,NW,305,0.0,0.0,93,0.00,,,0.00,0.0,meteobridge,2017-05-27 07:57:00,
2017-05-27 04:02:00,57.4,55.4,29.85,NW,305,0.0,0.0,93,0.00,,,0.00,0.0,meteobridge,2017-05-27 08:02:00,
2017-05-27 04:07:00,57.4,55.4,29.85,NW,305,0.0,0.0,93,0.00,,,0.00,0.0,meteobridge,2017-05-27 08:07:00,
2017-05-27 04:12:00,57.4,55.6,29.85,NW,305,0.0,2.0,94,0.00,,,0.00,0.0,meteobridge,2017-05-27 08:12:00,
2017-05-27 04:17:00,57.4,55.6,29.85,NW,305,0.9,3.0,94,0.00,,,0.00,0.0,meteobridge,2017-05-27 08:17:00,
2017-05-27 04:22:00,57.4,55.6,29.85,NW,305,0.0,1.0,94,0.00,,,0.00,0.0,meteobridge,2017-05-27 08:22:00,
2017-05-27 04:27:00,57.2,55.4,29.85,NW,305,2.0,2.0,94,0.00,,,0.00,0.0,meteobridge,2017-05-27 08:27:00,
2017-05-27 04:33:00,57.0,55.2,29.85,NW,305,0.9,2.0,94,0.00,,,0.00,0.0,meteobridge,2017-05-27 08:33:00,
2017-05-27 04:38:00,56.8,55.2,29.85,NW,305,0.9,3.0,94,0.00,,,0.00,0.0,meteobridge,2017-05-27 08:38:00,
2017-05-27 04:43:00,56.7,55.0,29.85,NW,305,0.0,0.0,94,0.00,,,0.00,0.0,meteobridge,2017-05-27 08:43:00,
2017-05-27 04:48:00,56.5,54.9,29.85,NW,305,0.0,0.0,94,0.00,,,0.00,0.0,meteobridge,2017-05-27 08:48:00,
2017-05-27 04:53:00,56.5,54.9,29.85,NW,305,0.0,2.0,94,0.00,,,0.00,0.0,meteobridge,2017-05-27 08:53:00,
2017-05-27 04:58:00,56.5,55.0,29.85,NW,305,0.9,2.0,95,0.00,,,0.00,0.0,meteobridge,2017-05-27 08:58:00,
2017-05-27 05:03:00,56.5,55.0,29.85,NW,305,0.0,1.0,95,0.00,,,0.00,0.0,meteobridge,2017-05-27 09:03:00,
2017-05-27 05:08:00,56.7,55.2,29.85,NW,305,0.9,2.0,95,0.00,,,0.00,0.0,meteobridge,2017-05-27 09:08:00,
2017-05-27 05:13:00,56.7,55.2,29.86,NW,305,0.0,0.0,95,0.00,,,0.00,0.0,meteobridge,2017-05-27 09:13:00,
2017-05-27 05:18:00,56.7,55.2,29.86,NW,305,0.0,0.0,95,0.00,,,0.00,0.0,meteobridge,2017-05-27 09:18:00,
2017-05-27 05:23:00,56.8,55.4,29.86,NW,305,0.0,2.0,95,0.00,,,0.00,0.0,meteobridge,2017-05-27 09:23:00,
2017-05-27 05:28:00,56.8,55.4,29.86,NW,305,0.0,0.0,95,0.00,,,0.00,0.0,meteobridge,2017-05-27 09:28:00,
2017-05-27 05:33:00,56.7,55.2,29.86,NW,305,0.0,0.0,95,0.00,,,0.00,0.0,meteobridge,2017-05-27 09:33:00,
2017-05-27 05:38:00,56.7,55.6,29.86,NW,305,0.0,2.0,96,0.00,,,0.00,0.0,meteobridge,2017-05-27 09:38:00,
2017-05-27 05:43:00,56.7,55.6,29.86,NW,305,0.9,1.0,96,0.00,,,0.00,0.0,meteobridge,2017-05-27 09:43:00,
2017-05-27 05:48:00,56.7,55.6,29.86,NW,305,0.0,1.0,96,0.00,,,0.00,0.0,meteobridge,2017-05-27 09:48:00,
2017-05-27 05:53:00,56.7,55.6,29.86,NW,305,0.0,1.0,96,0.00,,,0.00,0.0,meteobridge,2017-05-27 09:53:00,
2017-05-27 05:58:00,56.7,55.6,29.86,NW,305,0.0,0.0,96,0.00,,,0.00,0.0,meteobridge,2017-05-27 09:58:00,
2017-05-27 06:03:00,56.8,55.8,29.86,NW,305,0.0,0.0,96,0.00,,,0.00,0.0,meteobridge,2017-05-27 10:03:00,
2017-05-27 06:08:00,56.8,55.8,29.86,NW,305,0.0,0.0,96,0.00,,,0.00,0.0,meteobridge,2017-05-27 10:08:00,
2017-05-27 06:13:00,56.8,55.8,29.86,NW,305,0.0,0.0,96,0.00,,,0.00,0.0,meteobridge,2017-05-27 10:13:00,
2017-05-27 06:18:00,56.8,55.8,29.87,NW,305,0.0,0.0,96,0.00,,,0.00,0.0,meteobridge,2017-05-27 10:18:00,
2017-05-27 06:23:00,56.8,55.8,29.87,NW,305,0.0,0.0,96,0.00,,,0.00,5.0,meteobridge,2017-05-27 10:23:00,
2017-05-27 06:28:00,56.8,55.8,29.87,NW,305,0.0,0.0,96,0.00,,,0.00,14.0,meteobridge,2017-05-27 10:28:00,
2017-05-27 06:33:00,57.0,55.9,29.87,NW,305,0.0,1.0,96,0.00,,,0.00,28.0,meteobridge,2017-05-27 10:33:00,
2017-05-27 06:38:00,57.0,55.9,29.87,NW,305,0.0,1.0,96,0.00,,,0.00,33.0,meteobridge,2017-05-27 10:38:00,
2017-05-27 06:43:00,57.4,56.3,29.87,NW,305,0.0,1.0,96,0.00,,,0.00,60.0,meteobridge,2017-05-27 10:43:00,
2017-05-27 06:48:00,57.6,56.5,29.88,NW,305,0.0,0.0,96,0.00,,,0.00,81.0,meteobridge,2017-05-27 10:48:00,
2017-05-27 06:54:00,58.1,57.0,29.88,NW,305,0.9,3.0,96,0.00,,,0.00,98.0,meteobridge,2017-05-27 10:54:00,
2017-05-27 06:59:00,58.6,57.2,29.88,NW,305,0.0,3.0,95,0.00,,,0.00,113.0,meteobridge,2017-05-27 10:59:00,
2017-05-27 07:04:00,58.8,57.0,29.88,NW,305,2.0,3.0,94,0.00,,,0.00,134.0,meteobridge,2017-05-27 11:04:00,
2017-05-27 07:09:00,59.4,57.4,29.87,NE,55,2.9,5.0,93,0.00,,,0.00,151.0,meteobridge,2017-05-27 11:09:00,
2017-05-27 07:14:00,59.5,57.6,29.88,NE,53,0.9,3.0,93,0.00,,,0.00,174.0,meteobridge,2017-05-27 11:14:00,
2017-05-27 07:19:00,60.1,57.7,29.88,NE,52,2.0,3.0,92,0.00,,,0.00,200.0,meteobridge,2017-05-27 11:19:00,
2017-05-27 07:24:00,60.3,57.6,29.88,ENE,67,2.0,5.0,91,0.00,,,0.00,211.0,meteobridge,2017-05-27 11:24:00,
2017-05-27 07:29:00,60.6,57.7,29.88,ENE,61,0.9,4.0,90,0.00,,,0.00,244.0,meteobridge,2017-05-27 11:29:00,
2017-05-27 07:34:00,61.0,57.7,29.88,East,92,2.0,2.0,89,0.00,,,0.00,258.0,meteobridge,2017-05-27 11:34:00,
2017-05-27 07:36:00,61.0,57.7,29.88,East,88,0.9,6.0,89,0.00,,,0.00,141.0,meteobridge,2017-05-27 11:36:00,
2017-05-27 07:41:00,61.3,58.1,29.88,East,88,0.0,2.0,89,0.00,,,0.00,299.0,meteobridge,2017-05-27 11:41:00,
2017-05-27 07:46:00,61.9,57.9,29.88,East,88,2.0,5.0,87,0.00,,,0.00,327.0,meteobridge,2017-05-27 11:46:00,
2017-05-27 07:51:00,62.1,58.1,29.88,East,88,2.9,5.0,87,0.00,,,0.00,316.0,meteobridge,2017-05-27 11:51:00,
2017-05-27 07:56:00,62.2,58.3,29.88,East,88,0.0,2.0,87,0.00,,,0.00,338.0,meteobridge,2017-05-27 11:56:00,
2017-05-27 08:01:00,62.8,58.5,29.88,East,88,2.9,5.0,86,0.00,,,0.00,336.0,meteobridge,2017-05-27 12:01:00,
2017-05-27 08:06:00,63.0,58.5,29.88,ENE,74,4.0,4.0,85,0.00,,,0.00,327.0,meteobridge,2017-05-27 12:06:00,
2017-05-27 08:11:00,63.0,58.5,29.89,ENE,74,2.0,5.0,85,0.00,,,0.00,338.0,meteobridge,2017-05-27 12:11:00,
2017-05-27 08:16:00,63.3,58.8,29.89,ENE,74,2.0,4.0,85,0.00,,,0.00,350.0,meteobridge,2017-05-27 12:16:00,
2017-05-27 08:21:00,63.3,58.5,29.89,ENE,75,2.0,3.0,84,0.00,,,0.00,359.0,meteobridge,2017-05-27 12:21:00,
2017-05-27 08:26:00,63.5,58.8,29.89,ENE,75,0.0,1.0,85,0.00,,,0.00,376.0,meteobridge,2017-05-27 12:26:00,
2017-05-27 08:31:00,63.7,58.8,29.88,East,82,0.0,5.0,84,0.00,,,0.00,392.0,meteobridge,2017-05-27 12:31:00,
2017-05-27 08:36:00,64.2,59.0,29.88,East,80,4.9,5.0,83,0.00,,,0.00,406.0,meteobridge,2017-05-27 12:36:00,
2017-05-27 08:41:00,64.4,59.2,29.88,East,82,2.0,6.0,83,0.00,,,0.00,420.0,meteobridge,2017-05-27 12:41:00,
2017-05-27 08:46:00,64.8,59.5,29.88,East,94,6.0,6.0,83,0.00,,,0.00,439.0,meteobridge,2017-05-27 12:46:00,
2017-05-27 08:51:00,64.9,59.0,29.88,East,93,2.9,3.0,81,0.00,,,0.00,454.0,meteobridge,2017-05-27 12:51:00,
2017-05-27 08:56:00,65.5,59.9,29.88,SE,142,4.0,7.0,82,0.00,,,0.00,471.0,meteobridge,2017-05-27 12:56:00,
2017-05-27 09:01:00,65.3,59.4,29.88,South,169,0.0,2.0,81,0.00,,,0.00,485.0,meteobridge,2017-05-27 13:01:00,
2017-05-27 09:06:00,65.7,59.7,29.88,SSE,163,0.0,3.0,81,0.00,,,0.00,499.0,meteobridge,2017-05-27 13:06:00,
2017-05-27 09:11:00,65.7,58.3,29.88,ESE,109,2.9,10.0,77,0.00,,,0.00,510.0,meteobridge,2017-05-27 13:11:00,
2017-05-27 09:17:00,65.8,58.5,29.88,ESE,105,4.0,6.0,77,0.00,,,0.00,438.0,meteobridge,2017-05-27 13:17:00,
2017-05-27 09:22:00,66.4,59.0,29.88,SSE,147,0.0,3.0,77,0.00,,,0.00,540.0,meteobridge,2017-05-27 13:22:00,
2017-05-27 09:27:00,66.7,58.1,29.88,SSE,163,4.0,5.0,74,0.00,,,0.00,563.0,meteobridge,2017-05-27 13:27:00,
2017-05-27 09:32:00,67.1,58.1,29.88,SE,126,0.9,7.0,73,0.00,,,0.00,596.0,meteobridge,2017-05-27 13:32:00,
2017-05-27 09:37:00,67.3,57.9,29.88,ESE,115,2.9,7.0,72,0.00,,,0.00,591.0,meteobridge,2017-05-27 13:37:00,
2017-05-27 09:42:00,67.6,58.3,29.88,SE,134,6.9,7.0,72,0.00,,,0.00,601.0,meteobridge,2017-05-27 13:42:00,
2017-05-27 09:47:00,67.8,57.7,29.88,SE,124,2.9,7.0,70,0.00,,,0.00,617.0,meteobridge,2017-05-27 13:47:00,
2017-05-27 09:52:00,67.8,57.2,29.88,East,90,2.0,9.0,69,0.00,,,0.00,631.0,meteobridge,2017-05-27 13:52:00,
2017-05-27 09:57:00,68.2,58.1,29.88,SE,133,0.9,4.0,70,0.00,,,0.00,645.0,meteobridge,2017-05-27 13:57:00,
2017-05-27 10:02:00,68.5,57.9,29.88,SE,128,0.0,5.0,69,0.00,,,0.00,656.0,meteobridge,2017-05-27 14:02:00,
2017-05-27 10:07:00,68.5,57.6,29.88,South,173,0.0,7.0,68,0.00,,,0.00,670.0,meteobridge,2017-05-27 14:07:00,
2017-05-27 10:12:00,68.9,57.9,29.88,SE,124,0.9,9.0,68,0.00,,,0.00,686.0,meteobridge,2017-05-27 14:12:00,
2017-05-27 10:17:00,69.1,57.2,29.88,East,81,8.1,9.0,66,0.00,,,0.00,700.0,meteobridge,2017-05-27 14:17:00,
2017-05-27 10:22:00,68.9,57.6,29.89,SE,133,0.9,3.0,67,0.00,,,0.00,735.0,meteobridge,2017-05-27 14:22:00,
2017-05-27 10:27:00,69.1,57.2,29.89,ESE,113,0.9,10.0,66,0.00,,,0.00,726.0,meteobridge,2017-05-27 14:27:00,
2017-05-27 10:32:00,69.4,57.6,29.88,ESE,112,8.1,9.0,66,0.00,,,0.00,752.0,meteobridge,2017-05-27 14:32:00,
2017-05-27 10:37:00,69.8,58.3,29.88,SSE,165,6.0,6.0,67,0.00,,,0.00,758.0,meteobridge,2017-05-27 14:37:00,
2017-05-27 10:42:00,70.0,57.2,29.89,SSE,166,0.9,6.0,64,0.00,,,0.00,139.0,meteobridge,2017-05-27 14:42:00,
2017-05-27 10:47:00,70.0,57.7,29.89,South,173,0.9,4.0,65,0.00,,,0.00,809.0,meteobridge,2017-05-27 14:47:00,
2017-05-27 10:52:00,70.2,57.4,29.90,East,98,0.9,5.0,64,0.00,,,0.00,156.0,meteobridge,2017-05-27 14:52:00,
2017-05-27 10:57:00,70.0,57.2,29.90,South,171,2.9,3.0,64,0.00,,,0.00,199.0,meteobridge,2017-05-27 14:57:00,
2017-05-27 11:02:00,69.4,56.7,29.90,East,80,2.0,5.0,64,0.00,,,0.00,199.0,meteobridge,2017-05-27 15:02:00,
2017-05-27 11:07:00,69.3,56.5,29.90,NNE,28,4.0,5.0,64,0.00,,,0.00,898.0,meteobridge,2017-05-27 15:07:00,
2017-05-27 11:12:00,70.0,56.3,29.90,ENE,74,6.9,7.0,62,0.00,,,0.00,905.0,meteobridge,2017-05-27 15:12:00,
2017-05-27 11:17:00,70.3,57.2,29.90,SSW,194,2.0,6.0,63,0.00,,,0.00,940.0,meteobridge,2017-05-27 15:17:00,
2017-05-27 11:22:00,70.3,55.8,29.91,North,355,0.0,4.0,60,0.00,,,0.00,202.0,meteobridge,2017-05-27 15:22:00,
2017-05-27 11:27:00,70.2,55.6,29.91,NW,325,0.9,4.0,60,0.00,,,0.00,281.0,meteobridge,2017-05-27 15:27:00,
2017-05-27 11:32:00,69.6,56.5,29.92,ESE,102,4.0,6.0,63,0.00,,,0.00,306.0,meteobridge,2017-05-27 15:32:00,
2017-05-27 11:37:00,69.1,55.9,29.91,ESE,102,0.0,2.0,63,0.00,,,0.00,302.0,meteobridge,2017-05-27 15:37:00,
2017-05-27 11:42:00,69.3,57.0,29.91,SE,125,0.0,1.0,65,0.00,,,0.00,285.0,meteobridge,2017-05-27 15:42:00,
2017-05-27 11:47:00,69.4,56.7,29.91,SE,128,0.0,2.0,64,0.00,,,0.00,287.0,meteobridge,2017-05-27 15:47:00,
2017-05-27 11:52:00,69.4,57.2,29.91,ENE,58,4.0,5.0,65,0.00,,,0.00,271.0,meteobridge,2017-05-27 15:52:00,
2017-05-27 11:57:00,69.1,56.8,29.90,East,87,2.9,5.0,65,0.00,,,0.00,258.0,meteobridge,2017-05-27 15:57:00,
2017-05-27 12:02:00,68.9,57.6,29.90,East,87,2.9,3.0,67,0.00,,,0.00,246.0,meteobridge,2017-05-27 16:02:00,
2017-05-27 12:07:00,68.9,56.7,29.91,South,186,2.0,7.0,65,0.00,,,0.00,264.0,meteobridge,2017-05-27 16:07:00,
2017-05-27 12:13:00,69.1,56.8,29.91,ESE,109,2.9,3.0,65,0.00,,,0.00,330.0,meteobridge,2017-05-27 16:13:00,
2017-05-27 12:18:00,69.3,56.5,29.91,South,182,0.0,6.0,64,0.00,,,0.00,348.0,meteobridge,2017-05-27 16:18:00,
2017-05-27 12:23:00,69.6,56.8,29.91,ENE,58,4.0,5.0,64,0.00,,,0.00,497.0,meteobridge,2017-05-27 16:23:00,
2017-05-27 12:28:00,69.6,55.9,29.90,NE,55,2.9,3.0,62,0.00,,,0.00,387.0,meteobridge,2017-05-27 16:28:00,
2017-05-27 12:33:00,70.0,57.7,29.90,ENE,63,2.9,6.0,65,0.00,,,0.00,316.0,meteobridge,2017-05-27 16:33:00,
2017-05-27 12:38:00,70.2,57.4,29.90,South,190,0.9,4.0,64,0.00,,,0.00,325.0,meteobridge,2017-05-27 16:38:00,
2017-05-27 12:43:00,70.3,56.7,29.90,South,188,2.0,2.0,62,0.00,,,0.00,311.0,meteobridge,2017-05-27 16:43:00,
2017-05-27 12:48:00,70.5,57.4,29.90,South,182,2.9,3.0,63,0.00,,,0.00,330.0,meteobridge,2017-05-27 16:48:00,
2017-05-27 12:53:00,70.3,56.7,29.90,South,178,2.0,2.0,62,0.00,,,0.00,353.0,meteobridge,2017-05-27 16:53:00,
2017-05-27 12:58:00,70.3,57.2,29.90,South,178,0.9,3.0,63,0.00,,,0.00,359.0,meteobridge,2017-05-27 16:58:00,
2017-05-27 13:03:00,70.5,56.8,29.90,SSE,165,0.0,4.0,62,0.00,,,0.00,399.0,meteobridge,2017-05-27 17:03:00,
2017-05-27 13:08:00,70.5,56.8,29.90,ESE,110,0.9,5.0,62,0.00,,,0.00,438.0,meteobridge,2017-05-27 17:08:00,
2017-05-27 13:13:00,70.9,57.7,29.90,ESE,110,2.9,3.0,63,0.00,,,0.00,469.0,meteobridge,2017-05-27 17:13:00,
2017-05-27 13:18:00,71.1,56.8,29.89,ESE,109,0.0,3.0,61,0.00,,,0.00,564.0,meteobridge,2017-05-27 17:18:00,
2017-05-27 13:23:00,71.4,56.8,29.89,ESE,103,0.9,5.0,60,0.00,,,0.00,902.0,meteobridge,2017-05-27 17:23:00,
2017-05-27 13:28:00,71.8,57.2,29.89,East,81,6.0,6.0,60,0.00,,,0.00,540.0,meteobridge,2017-05-27 17:28:00,
2017-05-27 13:32:00,72.0,56.8,29.89,ENE,74,2.9,3.0,59,0.00,,,0.00,585.0,meteobridge,2017-05-27 17:32:00,
2017-05-27 13:37:00,72.1,57.9,29.89,ENE,74,0.0,2.0,61,0.00,,,0.00,626.0,meteobridge,2017-05-27 17:37:00,
2017-05-27 13:42:00,72.3,56.7,29.89,SSW,200,0.0,4.0,58,0.00,,,0.00,545.0,meteobridge,2017-05-27 17:42:00,
2017-05-27 13:47:00,72.7,57.6,29.89,SSW,200,0.9,1.0,59,0.00,,,0.00,584.0,meteobridge,2017-05-27 17:47:00,
2017-05-27 13:52:00,73.2,57.0,29.88,SSW,198,0.9,4.0,57,0.00,,,0.00,668.0,meteobridge,2017-05-27 17:52:00,
2017-05-27 13:57:00,73.8,57.0,29.88,SSW,198,0.9,2.0,56,0.00,,,0.00,960.0,meteobridge,2017-05-27 17:57:00,
2017-05-27 14:02:00,74.5,57.7,29.88,SSW,198,0.9,1.0,56,0.00,,,0.00,824.0,meteobridge,2017-05-27 18:02:00,
2017-05-27 14:07:00,75.4,58.1,29.88,East,89,7.0,7.0,55,0.00,,,0.00,664.0,meteobridge,2017-05-27 18:07:00,
2017-05-27 14:12:00,74.7,57.4,29.88,SW,219,0.0,5.0,55,0.00,,,0.00,524.0,meteobridge,2017-05-27 18:12:00,
2017-05-27 14:17:00,74.1,57.4,29.88,ENE,71,2.0,4.0,56,0.00,,,0.00,492.0,meteobridge,2017-05-27 18:17:00,
2017-05-27 14:22:00,73.4,57.7,29.88,ENE,66,2.0,3.0,58,0.00,,,0.00,425.0,meteobridge,2017-05-27 18:22:00,
2017-05-27 14:27:00,73.0,57.4,29.88,ENE,65,2.0,5.0,58,0.00,,,0.00,446.0,meteobridge,2017-05-27 18:27:00,
2017-05-27 14:32:00,72.5,56.8,29.88,SE,133,0.9,5.0,58,0.00,,,0.00,366.0,meteobridge,2017-05-27 18:32:00,
2017-05-27 14:35:00,72.3,57.7,29.88,SE,133,0.0,3.0,60,0.00,,,0.00,367.0,meteobridge,2017-05-27 18:35:00,
2017-05-27 14:40:00,72.7,57.0,29.88,ENE,66,0.9,2.0,58,0.00,,,0.00,800.0,meteobridge,2017-05-27 18:40:00,
2017-05-27 14:45:00,73.0,56.8,29.88,East,99,0.9,3.0,57,0.00,,,0.00,422.0,meteobridge,2017-05-27 18:45:00,
2017-05-27 14:50:00,73.0,57.9,29.88,ENE,73,0.9,4.0,59,0.00,,,0.00,441.0,meteobridge,2017-05-27 18:50:00,
2017-05-27 14:55:00,72.9,57.7,29.88,ENE,68,4.0,5.0,59,0.00,,,0.00,445.0,meteobridge,2017-05-27 18:55:00,
2017-05-27 15:00:00,72.7,56.1,29.88,ENE,61,0.9,3.0,56,0.00,,,0.00,406.0,meteobridge,2017-05-27 19:00:00,
2017-05-27 15:05:00,73.0,57.4,29.88,ENE,72,2.9,4.0,58,0.00,,,0.00,367.0,meteobridge,2017-05-27 19:05:00,
2017-05-27 15:08:00,73.0,56.5,29.88,ENE,77,0.9,5.0,56,0.00,,,0.00,338.0,meteobridge,2017-05-27 19:08:00,
2017-05-27 15:13:00,72.7,56.1,29.88,ENE,72,0.9,3.0,56,0.00,,,0.00,295.0,meteobridge,2017-05-27 19:13:00,
2017-05-27 15:18:00,72.7,56.5,29.88,ENE,72,0.9,3.0,57,0.00,,,0.00,260.0,meteobridge,2017-05-27 19:18:00,
2017-05-27 15:23:00,72.9,56.7,29.88,ENE,72,0.9,2.0,57,0.00,,,0.00,258.0,meteobridge,2017-05-27 19:23:00,
2017-05-27 15:28:00,72.9,56.3,29.88,ENE,72,0.0,0.0,56,0.00,,,0.00,264.0,meteobridge,2017-05-27 19:28:00,
2017-05-27 15:33:00,73.2,57.0,29.88,ENE,72,0.0,3.0,57,0.00,,,0.00,257.0,meteobridge,2017-05-27 19:33:00,
2017-05-27 15:38:00,72.9,57.2,29.88,ENE,72,0.0,3.0,58,0.00,,,0.00,250.0,meteobridge,2017-05-27 19:38:00,
2017-05-27 15:44:00,72.7,57.6,29.88,ENE,72,0.0,1.0,59,0.00,,,0.00,241.0,meteobridge,2017-05-27 19:44:00,
2017-05-27 15:49:00,72.9,58.1,29.88,ENE,72,0.9,1.0,60,0.00,,,0.00,315.0,meteobridge,2017-05-27 19:49:00,
2017-05-27 15:54:00,73.0,58.3,29.88,ENE,72,0.9,3.0,60,0.00,,,0.00,315.0,meteobridge,2017-05-27 19:54:00,
2017-05-27 15:59:00,73.0,57.9,29.88,East,100,0.0,3.0,59,0.00,,,0.00,334.0,meteobridge,2017-05-27 19:59:00,
2017-05-27 16:04:00,73.0,58.3,29.88,East,99,0.9,6.0,60,0.00,,,0.00,281.0,meteobridge,2017-05-27 20:04:00,
2017-05-27 16:09:00,73.0,59.2,29.88,East,100,2.0,2.0,62,0.00,,,0.00,239.0,meteobridge,2017-05-27 20:09:00,
2017-05-27 16:14:00,73.0,57.9,29.88,ESE,108,0.9,4.0,59,0.00,,,0.00,211.0,meteobridge,2017-05-27 20:14:00,
2017-05-27 16:19:00,73.0,58.8,29.88,ESE,108,2.9,3.0,61,0.00,,,0.00,193.0,meteobridge,2017-05-27 20:19:00,
2017-05-27 16:20:00,73.0,58.3,29.88,ESE,108,0.0,3.0,60,0.00,,,0.00,185.0,meteobridge,2017-05-27 20:20:00,
2017-05-27 16:25:00,72.9,59.9,29.88,ESE,108,0.9,1.0,64,0.00,,,0.00,155.0,meteobridge,2017-05-27 20:25:00,
2017-05-27 16:30:00,72.7,57.9,29.88,ESE,117,4.0,4.0,60,0.00,,,0.00,135.0,meteobridge,2017-05-27 20:30:00,
2017-05-27 16:35:00,72.1,58.5,29.88,SE,136,0.0,3.0,62,0.00,,,0.00,135.0,meteobridge,2017-05-27 20:35:00,
2017-05-27 16:40:00,72.0,58.6,29.88,SE,136,2.0,2.0,63,0.00,,,0.00,134.0,meteobridge,2017-05-27 20:40:00,
2017-05-27 16:45:00,71.8,58.5,29.88,SE,136,0.9,2.0,63,0.00,,,0.00,151.0,meteobridge,2017-05-27 20:45:00,
2017-05-27 16:50:00,71.8,58.5,29.88,SE,136,0.0,1.0,63,0.00,,,0.00,149.0,meteobridge,2017-05-27 20:50:00,
2017-05-27 16:55:00,71.8,58.5,29.88,SE,136,0.0,2.0,63,0.00,,,0.00,144.0,meteobridge,2017-05-27 20:55:00,
2017-05-27 17:00:00,71.8,59.0,29.88,SE,136,2.0,3.0,64,0.00,,,0.00,144.0,meteobridge,2017-05-27 21:00:00,
2017-05-27 17:05:00,71.6,58.8,29.88,SE,140,0.9,4.0,64,0.00,,,0.00,134.0,meteobridge,2017-05-27 21:05:00,
2017-05-27 17:10:00,71.4,59.0,29.88,SE,137,0.0,3.0,65,0.00,,,0.00,130.0,meteobridge,2017-05-27 21:10:00,
2017-05-27 17:15:00,71.2,58.8,29.88,SE,134,0.9,4.0,65,0.00,,,0.00,118.0,meteobridge,2017-05-27 21:15:00,
2017-05-27 17:20:00,71.1,59.2,29.88,SSE,154,0.9,3.0,66,0.00,,,0.00,105.0,meteobridge,2017-05-27 21:20:00,
2017-05-27 17:25:00,71.1,59.2,29.88,SSE,154,0.0,4.0,66,0.00,,,0.00,88.0,meteobridge,2017-05-27 21:25:00,
2017-05-27 17:30:00,70.9,59.7,29.88,SSE,153,0.0,1.0,68,0.00,,,0.00,79.0,meteobridge,2017-05-27 21:30:00,
2017-05-27 17:35:00,70.9,59.7,29.88,SSE,153,0.0,0.0,68,0.00,,,0.00,83.0,meteobridge,2017-05-27 21:35:00,
2017-05-27 17:40:00,70.9,59.4,29.88,SSE,153,0.0,1.0,67,0.00,,,0.00,95.0,meteobridge,2017-05-27 21:40:00,
2017-05-27 17:45:00,70.7,59.2,29.88,SSE,153,0.0,0.0,67,0.00,,,0.00,102.0,meteobridge,2017-05-27 21:45:00,
2017-05-27 17:50:00,70.7,59.5,29.88,SSE,153,0.0,1.0,68,0.00,,,0.00,102.0,meteobridge,2017-05-27 21:50:00,